Time;durP1;ratioP1;P1;durP2;ratioP2;P2;SDS_P1;SDS_P2;PMS_P1;PMS_P2;Temp;Humidity;BMP_temperature;BMP_pressure;BME280_temperature;BME280_humidity;BME280_pressure;Samples;Min_cycle;Max_cycle;Signal;HPM_P1;HPM_P2
2022/03/21 00:02:24;;;;;;;5.47;3.20;;;;;;;;;;4988311;28;20265;-51
2022/03/21 00:04:50;;;;;;;6.27;3.50;;;;;;;;;;4989074;28;20038;-51
2022/03/21 00:07:16;;;;;;;5.57;3.47;;;;;;;;;;4980547;28;20058;-51
2022/03/21 00:09:41;;;;;;;7.30;4.38;;;;;;;;;;4983043;28;20340;-51
2022/03/21 00:12:13;;;;;;;6.90;3.80;;;;;;;;;;4991485;28;20034;-52
2022/03/21 00:14:41;;;;;;;5.95;3.70;;;;;;;;;;4992258;28;20285;-52
2022/03/21 00:17:06;;;;;;;6.80;3.72;;;;;;;;;;4994407;28;20219;-51
2022/03/21 00:19:32;;;;;;;7.17;3.90;;;;;;;;;;4993165;28;20138;-54
2022/03/21 00:21:57;;;;;;;6.57;3.65;;;;;;;;;;4992928;28;20305;-52
2022/03/21 00:24:23;;;;;;;6.53;3.90;;;;;;;;;;4993222;28;20034;-52
2022/03/21 00:26:48;;;;;;;6.40;3.77;;;;;;;;;;4992127;28;20010;-51
2022/03/21 00:29:14;;;;;;;6.70;3.70;;;;;;;;;;4994154;28;20360;-51
2022/03/21 00:31:39;;;;;;;6.07;3.55;;;;;;;;;;4989081;28;20823;-51
2022/03/21 00:34:04;;;;;;;7.03;4.20;;;;;;;;;;4984978;28;20042;-51
2022/03/21 00:36:32;;;;;;;6.90;4.17;;;;;;;;;;4984829;28;20680;-52
2022/03/21 00:38:58;;;;;;;7.70;4.53;;;;;;;;;;4985041;28;20538;-51
2022/03/21 00:41:23;;;;;;;6.50;4.00;;;;;;;;;;4985310;28;20014;-52
2022/03/21 00:43:52;;;;;;;7.20;4.00;;;;;;;;;;4984259;28;20026;-51
2022/03/21 00:46:17;;;;;;;7.05;4.50;;;;;;;;;;4983071;28;20099;-51
2022/03/21 00:48:43;;;;;;;6.87;3.80;;;;;;;;;;4983115;28;20002;-51
2022/03/21 00:51:08;;;;;;;7.32;4.45;;;;;;;;;;4982910;28;20289;-51
2022/03/21 00:53:33;;;;;;;7.28;4.50;;;;;;;;;;4982737;28;20423;-51
2022/03/21 00:55:58;;;;;;;8.07;4.40;;;;;;;;;;4982360;28;20033;-51
2022/03/21 00:58:24;;;;;;;8.20;4.80;;;;;;;;;;4977139;28;20018;-53
2022/03/21 01:00:49;;;;;;;7.97;4.75;;;;;;;;;;4987894;28;20478;-51
2022/03/21 01:03:14;;;;;;;6.43;4.33;;;;;;;;;;5002730;28;20049;-51
2022/03/21 01:05:39;;;;;;;6.83;4.10;;;;;;;;;;5002500;28;20280;-51
2022/03/21 01:08:05;;;;;;;7.75;4.72;;;;;;;;;;4986615;28;20693;-52
2022/03/21 01:10:30;;;;;;;7.15;4.20;;;;;;;;;;4982780;28;20029;-51
2022/03/21 01:12:55;;;;;;;7.55;4.60;;;;;;;;;;4983032;28;20014;-52
2022/03/21 01:15:21;;;;;;;6.90;4.28;;;;;;;;;;4983752;28;20021;-51
2022/03/21 01:17:46;;;;;;;8.00;4.90;;;;;;;;;;4996646;28;20046;-51
2022/03/21 01:20:12;;;;;;;6.40;4.15;;;;;;;;;;4986472;28;20519;-51
2022/03/21 01:22:37;;;;;;;8.15;4.35;;;;;;;;;;4983542;28;20567;-51
2022/03/21 01:25:03;;;;;;;6.97;4.60;;;;;;;;;;4983745;28;20102;-51
2022/03/21 01:27:29;;;;;;;6.80;4.43;;;;;;;;;;4972993;28;20109;-51
2022/03/21 01:29:54;;;;;;;7.95;4.63;;;;;;;;;;4978351;28;20030;-51
2022/03/21 01:32:20;;;;;;;6.75;4.47;;;;;;;;;;4983316;28;20154;-51
2022/03/21 01:34:45;;;;;;;7.43;4.85;;;;;;;;;;4983591;28;20557;-51
2022/03/21 01:37:10;;;;;;;7.53;4.40;;;;;;;;;;4983677;28;20030;-51
2022/03/21 01:39:36;;;;;;;8.03;4.60;;;;;;;;;;4983617;28;20353;-51
2022/03/21 01:42:02;;;;;;;8.48;4.75;;;;;;;;;;4983626;28;20289;-50
2022/03/21 01:44:27;;;;;;;8.10;5.00;;;;;;;;;;4983311;28;20099;-49
2022/03/21 01:46:52;;;;;;;7.03;4.85;;;;;;;;;;4977423;28;20027;-49
2022/03/21 01:49:18;;;;;;;8.93;4.70;;;;;;;;;;4973347;28;20112;-50
2022/03/21 01:51:43;;;;;;;7.25;4.47;;;;;;;;;;4983531;28;20392;-50
2022/03/21 01:56:52;;;;;;;8.95;5.10;;;;;;;;;;4970062;28;20092;-51
2022/03/21 01:59:19;;;;;;;7.85;4.85;;;;;;;;;;4983343;28;20026;-50
2022/03/21 02:01:44;;;;;;;6.78;4.05;;;;;;;;;;4983373;28;20609;-51
2022/03/21 02:04:09;;;;;;;8.02;4.57;;;;;;;;;;4983466;28;20053;-51
2022/03/21 02:06:35;;;;;;;8.23;4.63;;;;;;;;;;4979886;28;20035;-51
2022/03/21 02:09:01;;;;;;;7.90;4.60;;;;;;;;;;4977439;28;20018;-51
2022/03/21 02:11:26;;;;;;;7.80;4.70;;;;;;;;;;5001402;28;20038;-51
2022/03/21 02:13:56;;;;;;;7.85;4.63;;;;;;;;;;5002909;28;20113;-50
2022/03/21 02:16:21;;;;;;;8.90;5.07;;;;;;;;;;4984523;28;20107;-51
2022/03/21 02:18:46;;;;;;;7.20;4.75;;;;;;;;;;4982875;28;20053;-52
2022/03/21 02:21:16;;;;;;;7.13;4.37;;;;;;;;;;4983116;28;20023;-52
2022/03/21 02:23:57;;;;;;;7.40;4.57;;;;;;;;;;4983189;28;20368;-50
2022/03/21 02:26:22;;;;;;;8.95;5.18;;;;;;;;;;4980973;28;20034;-49
2022/03/21 02:28:47;;;;;;;7.28;5.18;;;;;;;;;;4987912;28;20235;-49
2022/03/21 02:31:13;;;;;;;7.57;4.60;;;;;;;;;;5002667;28;20180;-49
2022/03/21 02:33:38;;;;;;;7.60;4.65;;;;;;;;;;5002876;28;20265;-50
2022/03/21 02:36:03;;;;;;;8.05;4.70;;;;;;;;;;4987184;28;20018;-50
2022/03/21 02:38:29;;;;;;;8.68;5.03;;;;;;;;;;4982803;28;20045;-49
2022/03/21 02:40:54;;;;;;;7.57;4.90;;;;;;;;;;4981734;28;20010;-49
2022/03/21 02:43:19;;;;;;;7.37;4.97;;;;;;;;;;4985176;28;20254;-50
2022/03/21 02:45:44;;;;;;;8.10;4.97;;;;;;;;;;4986940;28;20855;-50
2022/03/21 02:48:13;;;;;;;8.03;4.83;;;;;;;;;;4970789;28;20262;-50
2022/03/21 02:50:43;;;;;;;7.53;5.10;;;;;;;;;;4971188;28;20038;-50
2022/03/21 02:53:08;;;;;;;9.73;5.43;;;;;;;;;;4986772;28;20026;-50
2022/03/21 02:55:34;;;;;;;8.40;5.07;;;;;;;;;;4986467;28;20042;-50
2022/03/21 02:57:59;;;;;;;8.47;5.00;;;;;;;;;;4984515;28;20018;-50
2022/03/21 03:00:24;;;;;;;8.88;5.55;;;;;;;;;;5004371;28;20018;-50
2022/03/21 03:02:49;;;;;;;8.35;5.03;;;;;;;;;;4991532;28;20018;-50
2022/03/21 03:05:15;;;;;;;8.57;4.90;;;;;;;;;;4994157;28;20018;-50
2022/03/21 03:07:40;;;;;;;8.13;5.10;;;;;;;;;;4994108;28;20030;-50
2022/03/21 03:10:05;;;;;;;8.93;5.17;;;;;;;;;;4986540;28;20335;-51
2022/03/21 03:12:31;;;;;;;9.20;5.28;;;;;;;;;;4986083;28;20819;-51
2022/03/21 03:14:56;;;;;;;8.93;5.50;;;;;;;;;;4986388;28;20026;-50
2022/03/21 03:17:21;;;;;;;8.17;5.03;;;;;;;;;;4986526;28;21051;-50
2022/03/21 03:19:46;;;;;;;8.40;5.10;;;;;;;;;;4986137;28;20812;-50
2022/03/21 03:22:12;;;;;;;8.88;5.80;;;;;;;;;;4984479;28;20633;-51
2022/03/21 03:24:37;;;;;;;9.93;5.60;;;;;;;;;;4984947;28;20015;-51
2022/03/21 03:27:02;;;;;;;9.00;5.80;;;;;;;;;;4977907;28;20298;-52
2022/03/21 03:29:27;;;;;;;9.43;5.50;;;;;;;;;;4976847;28;20265;-51
2022/03/21 03:31:53;;;;;;;11.27;5.60;;;;;;;;;;4986179;28;20038;-50
2022/03/21 03:34:18;;;;;;;8.63;5.53;;;;;;;;;;4985992;28;20368;-51
2022/03/21 03:36:43;;;;;;;9.47;5.40;;;;;;;;;;4986071;28;20054;-50
2022/03/21 03:39:08;;;;;;;8.40;5.57;;;;;;;;;;4985814;28;20061;-51
2022/03/21 03:41:34;;;;;;;8.90;5.77;;;;;;;;;;4985755;28;20301;-51
2022/03/21 03:43:59;;;;;;;8.05;5.50;;;;;;;;;;4985880;28;20061;-51
2022/03/21 03:46:24;;;;;;;7.73;5.30;;;;;;;;;;4985781;28;20517;-51
2022/03/21 03:48:49;;;;;;;8.40;5.38;;;;;;;;;;4985520;28;20863;-51
2022/03/21 03:51:15;;;;;;;9.43;5.55;;;;;;;;;;4985626;28;20038;-50
2022/03/21 03:53:40;;;;;;;9.07;5.65;;;;;;;;;;4984629;28;20053;-50
2022/03/21 03:56:08;;;;;;;10.13;5.35;;;;;;;;;;4985583;28;20490;-52
2022/03/21 03:58:36;;;;;;;10.50;6.38;;;;;;;;;;4985377;28;20517;-51
2022/03/21 04:01:04;;;;;;;10.82;6.00;;;;;;;;;;4985837;28;20496;-51
2022/03/21 04:03:45;;;;;;;8.82;5.80;;;;;;;;;;4985393;28;20588;-50
2022/03/21 04:06:11;;;;;;;10.48;6.00;;;;;;;;;;4985827;28;20057;-51
2022/03/21 04:08:36;;;;;;;9.88;6.00;;;;;;;;;;4969289;28;20056;-50
2022/03/21 04:11:01;;;;;;;10.75;6.20;;;;;;;;;;4985307;28;20581;-51
2022/03/21 04:13:27;;;;;;;11.67;6.07;;;;;;;;;;4984093;28;20030;-50
2022/03/21 04:15:52;;;;;;;11.33;6.17;;;;;;;;;;4985342;28;20266;-50
2022/03/21 04:18:17;;;;;;;9.33;6.43;;;;;;;;;;4985231;28;20014;-51
2022/03/21 04:20:42;;;;;;;10.17;6.27;;;;;;;;;;4985188;28;20272;-50
2022/03/21 04:23:09;;;;;;;9.30;5.85;;;;;;;;;;4985082;28;20364;-50
2022/03/21 04:25:34;;;;;;;10.35;5.97;;;;;;;;;;4983846;28;20030;-50
2022/03/21 04:28:00;;;;;;;10.33;5.70;;;;;;;;;;4983533;28;20030;-51
2022/03/21 04:30:26;;;;;;;10.68;7.00;;;;;;;;;;4983564;28;20281;-50
2022/03/21 04:32:51;;;;;;;10.05;6.10;;;;;;;;;;4984853;28;20697;-50
2022/03/21 04:35:16;;;;;;;9.97;5.93;;;;;;;;;;4978761;28;20106;-50
2022/03/21 04:37:41;;;;;;;9.73;5.77;;;;;;;;;;4977363;28;20804;-51
2022/03/21 04:40:07;;;;;;;10.30;5.73;;;;;;;;;;4984730;28;20327;-51
2022/03/21 04:42:33;;;;;;;10.35;6.28;;;;;;;;;;4984590;28;20372;-50
2022/03/21 04:44:58;;;;;;;10.52;6.28;;;;;;;;;;4976509;28;20028;-51
2022/03/21 04:47:24;;;;;;;10.23;5.87;;;;;;;;;;4982161;28;20022;-50
2022/03/21 04:49:49;;;;;;;9.20;6.07;;;;;;;;;;4983717;28;20372;-50
2022/03/21 04:52:14;;;;;;;10.17;6.23;;;;;;;;;;4983590;28;20038;-49
2022/03/21 04:54:39;;;;;;;11.13;6.47;;;;;;;;;;4983654;28;20296;-51
2022/03/21 04:57:06;;;;;;;9.98;5.85;;;;;;;;;;4976748;28;20049;-50
2022/03/21 04:59:33;;;;;;;10.55;6.82;;;;;;;;;;4969626;28;20027;-50
2022/03/21 05:01:58;;;;;;;9.52;6.18;;;;;;;;;;4966485;28;20034;-51
2022/03/21 05:04:23;;;;;;;10.97;7.13;;;;;;;;;;4980344;28;20036;-50
2022/03/21 05:06:49;;;;;;;11.93;6.73;;;;;;;;;;4981959;28;20027;-51
2022/03/21 05:09:14;;;;;;;11.93;7.17;;;;;;;;;;4983477;28;20276;-52
2022/03/21 05:11:40;;;;;;;10.90;6.80;;;;;;;;;;4983691;28;20046;-51
2022/03/21 05:14:05;;;;;;;10.63;7.00;;;;;;;;;;4983605;28;20014;-51
2022/03/21 05:16:30;;;;;;;11.93;6.95;;;;;;;;;;4982938;28;20109;-51
2022/03/21 05:18:55;;;;;;;9.37;5.80;;;;;;;;;;4983392;28;20021;-51
2022/03/21 05:21:21;;;;;;;10.70;6.20;;;;;;;;;;4971545;28;20276;-51
2022/03/21 05:31:57;;;;;;;11.80;6.13;;;;;;;;;;4969727;28;20124;-52
2022/03/21 05:37:06;;;;;;;12.18;6.50;;;;;;;;;;4966703;28;20122;-53
2022/03/21 05:39:32;;;;;;;17.00;7.23;;;;;;;;;;4967088;28;20050;-53
2022/03/21 05:41:57;;;;;;;17.77;7.87;;;;;;;;;;4967178;28;20310;-51
2022/03/21 05:44:24;;;;;;;18.37;8.57;;;;;;;;;;4968001;28;20274;-52
2022/03/21 05:46:49;;;;;;;13.75;7.25;;;;;;;;;;4977294;28;20285;-53
2022/03/21 05:49:14;;;;;;;16.60;7.10;;;;;;;;;;4971294;28;20458;-52
2022/03/21 05:51:42;;;;;;;17.50;7.60;;;;;;;;;;4983309;28;20668;-52
2022/03/21 05:54:08;;;;;;;18.63;7.78;;;;;;;;;;4982886;28;20809;-50
2022/03/21 05:56:34;;;;;;;19.05;7.43;;;;;;;;;;4973277;28;20041;-54
2022/03/21 06:00:20;;;;;;;16.90;7.57;;;;;;;;;;4982341;28;20026;-52
2022/03/21 06:01:44;;;;;;;17.40;7.43;;;;;;;;;;4983625;28;20022;-52
2022/03/21 06:04:10;;;;;;;20.13;7.83;;;;;;;;;;4984069;28;20014;-54
2022/03/21 06:06:36;;;;;;;20.07;8.00;;;;;;;;;;4980015;28;20039;-52
2022/03/21 06:09:01;;;;;;;20.77;8.63;;;;;;;;;;4974990;28;20261;-52
2022/03/21 06:11:26;;;;;;;17.03;7.40;;;;;;;;;;5000498;28;20043;-52
2022/03/21 06:13:52;;;;;;;14.85;7.30;;;;;;;;;;5002649;28;20344;-50
2022/03/21 06:16:17;;;;;;;19.13;8.20;;;;;;;;;;4985320;28;20026;-50
2022/03/21 06:18:42;;;;;;;24.80;9.23;;;;;;;;;;4980682;28;20370;-51
2022/03/21 06:21:08;;;;;;;20.75;8.48;;;;;;;;;;4981317;28;20352;-50
2022/03/21 06:23:33;;;;;;;19.23;9.35;;;;;;;;;;4970313;28;20101;-50
2022/03/21 06:25:58;;;;;;;19.67;8.07;;;;;;;;;;4974636;28;20522;-51
2022/03/21 06:28:24;;;;;;;26.38;8.52;;;;;;;;;;4971865;28;20483;-51
2022/03/21 06:30:53;;;;;;;18.25;8.00;;;;;;;;;;4982876;28;20030;-51
2022/03/21 06:33:19;;;;;;;20.95;7.07;;;;;;;;;;4983069;28;20131;-50
2022/03/21 06:35:44;;;;;;;16.63;7.35;;;;;;;;;;4998022;28;20502;-50
2022/03/21 06:38:10;;;;;;;19.63;7.93;;;;;;;;;;4987331;28;20007;-51
2022/03/21 06:40:36;;;;;;;16.45;7.18;;;;;;;;;;4987825;28;20033;-51
2022/03/21 06:43:02;;;;;;;19.80;7.68;;;;;;;;;;4985535;28;20050;-50
2022/03/21 06:45:28;;;;;;;22.95;8.27;;;;;;;;;;4984156;28;20021;-51
2022/03/21 06:47:53;;;;;;;16.75;7.85;;;;;;;;;;4983474;28;20034;-50
2022/03/21 06:50:18;;;;;;;16.97;7.83;;;;;;;;;;4983938;28;20536;-50
2022/03/21 06:52:44;;;;;;;18.73;7.57;;;;;;;;;;4984614;28;20474;-51
2022/03/21 06:55:12;;;;;;;20.60;8.30;;;;;;;;;;4982571;28;20627;-51
2022/03/21 06:57:38;;;;;;;16.40;7.93;;;;;;;;;;4980715;28;20026;-51
2022/03/21 07:00:05;;;;;;;20.38;7.57;;;;;;;;;;4978130;28;20037;-50
2022/03/21 07:02:31;;;;;;;21.08;8.80;;;;;;;;;;4981517;28;20398;-51
2022/03/21 07:05:02;;;;;;;19.30;7.95;;;;;;;;;;4981691;28;20027;-51
2022/03/21 07:07:30;;;;;;;19.98;8.00;;;;;;;;;;4980787;28;20026;-51
2022/03/21 07:09:55;;;;;;;17.67;7.65;;;;;;;;;;4969748;28;20302;-50
2022/03/21 07:12:20;;;;;;;24.17;8.88;;;;;;;;;;4975514;28;20035;-51
2022/03/21 07:14:48;;;;;;;23.00;7.82;;;;;;;;;;4965970;28;20022;-50
2022/03/21 07:17:16;;;;;;;16.80;7.15;;;;;;;;;;4979481;28;20038;-51
2022/03/21 07:19:41;;;;;;;19.35;8.85;;;;;;;;;;4981390;28;20022;-50
2022/03/21 07:22:07;;;;;;;23.27;8.77;;;;;;;;;;4982020;28;20034;-51
2022/03/21 07:24:32;;;;;;;16.03;8.00;;;;;;;;;;4963446;28;20030;-51
2022/03/21 07:26:57;;;;;;;20.42;7.70;;;;;;;;;;4976197;28;20269;-51
2022/03/21 07:29:23;;;;;;;20.90;7.70;;;;;;;;;;4980246;28;20560;-51
2022/03/21 07:31:48;;;;;;;17.10;6.95;;;;;;;;;;4973526;28;20035;-52
2022/03/21 07:34:14;;;;;;;17.53;8.53;;;;;;;;;;4968366;28;20245;-51
2022/03/21 07:36:39;;;;;;;21.15;7.28;;;;;;;;;;4968519;28;20029;-51
2022/03/21 07:39:05;;;;;;;18.20;7.22;;;;;;;;;;4966070;28;20023;-50
2022/03/21 07:41:30;;;;;;;14.98;6.65;;;;;;;;;;4966593;28;20015;-51
2022/03/21 07:43:57;;;;;;;14.70;7.17;;;;;;;;;;4972683;28;20466;-50
2022/03/21 07:49:06;;;;;;;17.60;7.55;;;;;;;;;;4971137;28;20118;-51
2022/03/21 07:51:31;;;;;;;13.67;7.20;;;;;;;;;;4983598;28;20117;-49
2022/03/21 07:53:56;;;;;;;16.35;7.05;;;;;;;;;;4981284;28;20121;-51
2022/03/21 07:56:23;;;;;;;18.93;7.67;;;;;;;;;;4975612;28;20027;-51
2022/03/21 07:58:48;;;;;;;18.02;7.13;;;;;;;;;;4967113;28;20263;-50
2022/03/21 08:01:13;;;;;;;17.03;7.73;;;;;;;;;;4965632;28;20093;-49
2022/03/21 08:03:39;;;;;;;15.52;7.38;;;;;;;;;;4967083;28;20074;-50
2022/03/21 08:06:08;;;;;;;17.80;7.07;;;;;;;;;;4965803;28;20041;-50
2022/03/21 08:08:33;;;;;;;19.33;7.10;;;;;;;;;;4965459;28;20262;-50
2022/03/21 08:10:58;;;;;;;14.00;6.77;;;;;;;;;;4967529;28;20038;-50
2022/03/21 08:13:25;;;;;;;12.57;6.77;;;;;;;;;;4974481;28;20057;-50
2022/03/21 08:15:50;;;;;;;11.73;6.40;;;;;;;;;;4969824;28;20517;-52
2022/03/21 08:18:16;;;;;;;18.13;7.30;;;;;;;;;;4965146;28;20030;-50
2022/03/21 08:20:43;;;;;;;17.87;7.23;;;;;;;;;;4966094;28;20010;-50
2022/03/21 08:23:12;;;;;;;15.75;6.47;;;;;;;;;;4963528;28;20266;-50
2022/03/21 08:25:45;;;;;;;15.18;7.20;;;;;;;;;;4964956;28;20032;-50
2022/03/21 08:28:11;;;;;;;14.63;6.47;;;;;;;;;;4968515;28;20486;-50
2022/03/21 08:30:36;;;;;;;15.35;7.00;;;;;;;;;;4984230;28;20053;-50
2022/03/21 08:33:06;;;;;;;13.93;6.25;;;;;;;;;;4985428;28;20081;-50
2022/03/21 08:35:31;;;;;;;15.07;6.38;;;;;;;;;;4972075;28;20080;-50
2022/03/21 08:37:56;;;;;;;14.67;6.93;;;;;;;;;;4978587;28;20124;-50
2022/03/21 08:40:22;;;;;;;11.83;6.33;;;;;;;;;;4984024;28;20272;-51
2022/03/21 08:42:47;;;;;;;12.07;6.78;;;;;;;;;;4983705;28;20030;-51
2022/03/21 08:45:13;;;;;;;13.07;6.80;;;;;;;;;;4984886;28;20026;-49
2022/03/21 08:47:39;;;;;;;14.63;6.93;;;;;;;;;;4974096;28;20290;-51
2022/03/21 08:50:04;;;;;;;13.27;5.95;;;;;;;;;;4979395;28;20027;-50
2022/03/21 08:52:30;;;;;;;14.20;6.50;;;;;;;;;;4984462;28;20120;-50
2022/03/21 08:54:56;;;;;;;14.82;7.20;;;;;;;;;;4984582;28;20131;-50
2022/03/21 08:57:21;;;;;;;13.65;6.00;;;;;;;;;;4982137;28;20473;-50
2022/03/21 08:59:47;;;;;;;11.57;6.27;;;;;;;;;;4995876;28;20026;-50
2022/03/21 09:02:13;;;;;;;13.75;6.25;;;;;;;;;;4981972;28;20125;-50
2022/03/21 09:04:39;;;;;;;13.30;6.53;;;;;;;;;;4983836;28;20117;-50
2022/03/21 09:07:04;;;;;;;13.73;6.43;;;;;;;;;;4978195;28;20174;-50
2022/03/21 09:09:30;;;;;;;11.77;6.07;;;;;;;;;;4979068;28;20037;-50
2022/03/21 09:11:55;;;;;;;12.37;5.93;;;;;;;;;;4969261;28;20425;-50
2022/03/21 09:14:20;;;;;;;10.88;6.18;;;;;;;;;;4966369;28;20729;-49
2022/03/21 09:16:45;;;;;;;12.30;6.10;;;;;;;;;;4968248;28;20036;-50
2022/03/21 09:19:11;;;;;;;14.95;6.25;;;;;;;;;;4966153;28;20023;-49
2022/03/21 09:21:37;;;;;;;13.57;6.90;;;;;;;;;;4964790;28;20034;-49
2022/03/21 09:24:02;;;;;;;13.00;6.70;;;;;;;;;;4968542;28;20277;-50
2022/03/21 09:26:27;;;;;;;13.32;6.38;;;;;;;;;;4966478;28;20339;-50
2022/03/21 09:28:59;;;;;;;14.10;6.70;;;;;;;;;;4964423;28;20105;-50
2022/03/21 09:31:25;;;;;;;13.52;7.05;;;;;;;;;;4966063;28;20752;-51
2022/03/21 09:33:50;;;;;;;13.20;6.75;;;;;;;;;;4965537;28;20114;-51
2022/03/21 09:36:15;;;;;;;11.83;6.47;;;;;;;;;;4965698;28;20546;-51
2022/03/21 09:38:41;;;;;;;12.47;6.63;;;;;;;;;;4967716;28;20026;-51
2022/03/21 09:41:10;;;;;;;10.73;6.55;;;;;;;;;;4966574;28;20495;-49
2022/03/21 09:43:35;;;;;;;12.30;6.80;;;;;;;;;;4967004;28;20442;-50
2022/03/21 09:46:01;;;;;;;12.90;7.00;;;;;;;;;;4964068;28;20027;-50
2022/03/21 09:48:26;;;;;;;12.68;7.15;;;;;;;;;;4967581;28;20510;-50
2022/03/21 09:50:52;;;;;;;10.93;6.35;;;;;;;;;;4965898;28;20038;-52
2022/03/21 09:53:18;;;;;;;10.73;6.28;;;;;;;;;;4965383;28;20477;-50
2022/03/21 09:55:43;;;;;;;10.05;6.10;;;;;;;;;;4968495;28;20064;-50
2022/03/21 09:58:10;;;;;;;11.68;6.85;;;;;;;;;;4968360;28;20034;-50
2022/03/21 10:00:36;;;;;;;10.05;5.20;;;;;;;;;;4967279;28;20035;-50
2022/03/21 10:03:02;;;;;;;9.82;5.75;;;;;;;;;;4966789;28;20029;-50
2022/03/21 10:05:29;;;;;;;11.97;6.40;;;;;;;;;;4965393;28;20026;-51
2022/03/21 10:08:08;;;;;;;9.93;5.45;;;;;;;;;;4963098;28;20031;-50
2022/03/21 10:10:33;;;;;;;10.95;5.70;;;;;;;;;;4966780;28;20027;-51
2022/03/21 10:12:59;;;;;;;8.90;5.40;;;;;;;;;;4965553;28;20077;-51
2022/03/21 10:15:24;;;;;;;10.00;5.40;;;;;;;;;;4965141;28;20277;-51
2022/03/21 10:18:03;;;;;;;10.03;5.67;;;;;;;;;;4965045;28;20026;-50
2022/03/21 10:20:31;;;;;;;9.77;5.83;;;;;;;;;;4967684;28;20270;-50
2022/03/21 10:22:57;;;;;;;9.50;5.65;;;;;;;;;;4969314;28;20014;-52
2022/03/21 10:25:22;;;;;;;9.17;5.00;;;;;;;;;;4969975;28;20091;-50
2022/03/21 10:27:48;;;;;;;9.57;5.60;;;;;;;;;;4977988;28;20032;-49
2022/03/21 10:30:15;;;;;;;9.55;4.85;;;;;;;;;;4981804;28;20526;-51
2022/03/21 10:32:42;;;;;;;10.48;5.93;;;;;;;;;;4983108;28;20065;-50
2022/03/21 10:35:10;;;;;;;15.02;7.72;;;;;;;;;;4983047;28;20111;-50
2022/03/21 10:37:42;;;;;;;14.52;8.77;;;;;;;;;;4983262;28;20035;-51
2022/03/21 10:40:19;;;;;;;14.30;9.05;;;;;;;;;;4982010;28;20034;-52
2022/03/21 10:43:06;;;;;;;17.33;9.82;;;;;;;;;;4982715;28;20014;-51
2022/03/21 10:45:34;;;;;;;16.48;9.68;;;;;;;;;;4983176;28;20022;-50
2022/03/21 10:47:59;;;;;;;16.10;9.68;;;;;;;;;;4969954;28;20065;-50
2022/03/21 10:50:28;;;;;;;14.73;9.48;;;;;;;;;;4978290;28;20054;-50
2022/03/21 10:53:12;;;;;;;15.67;9.60;;;;;;;;;;4982716;28;20105;-50
2022/03/21 10:55:38;;;;;;;15.77;9.10;;;;;;;;;;4982652;28;20534;-51
2022/03/21 10:58:03;;;;;;;15.35;9.40;;;;;;;;;;4980592;28;20026;-51
2022/03/21 11:00:29;;;;;;;16.88;8.98;;;;;;;;;;4982459;28;20105;-51
2022/03/21 11:02:58;;;;;;;16.95;10.20;;;;;;;;;;4981436;28;20474;-51
2022/03/21 11:05:24;;;;;;;19.30;9.20;;;;;;;;;;4987504;28;20030;-51
2022/03/21 11:07:49;;;;;;;15.38;8.32;;;;;;;;;;4975262;28;20059;-51
2022/03/21 11:10:14;;;;;;;16.40;9.02;;;;;;;;;;4997853;28;20083;-50
2022/03/21 11:12:42;;;;;;;14.30;8.55;;;;;;;;;;5006392;28;20786;-50
2022/03/21 11:15:07;;;;;;;18.23;8.20;;;;;;;;;;4996747;28;20125;-50
2022/03/21 11:17:33;;;;;;;16.00;8.88;;;;;;;;;;4975035;28;20510;-52
2022/03/21 11:19:59;;;;;;;15.00;8.65;;;;;;;;;;4986032;28;20126;-50
2022/03/21 11:22:24;;;;;;;13.98;8.50;;;;;;;;;;4984895;28;20656;-51
2022/03/21 11:24:49;;;;;;;13.33;8.30;;;;;;;;;;4986376;28;20030;-50
2022/03/21 11:27:20;;;;;;;15.30;8.13;;;;;;;;;;4978770;28;20093;-50
2022/03/21 11:29:59;;;;;;;13.65;8.10;;;;;;;;;;4988033;28;20372;-52
2022/03/21 11:32:27;;;;;;;16.27;8.88;;;;;;;;;;4995178;28;20498;-51
2022/03/21 11:35:02;;;;;;;12.60;7.57;;;;;;;;;;4986022;28;20029;-51
2022/03/21 11:37:29;;;;;;;13.10;8.05;;;;;;;;;;4986492;28;20524;-51
2022/03/21 11:40:18;;;;;;;14.90;9.07;;;;;;;;;;4985971;28;20034;-50
2022/03/21 11:42:43;;;;;;;12.85;7.38;;;;;;;;;;4980843;28;20120;-51
2022/03/21 11:45:24;;;;;;;13.33;8.47;;;;;;;;;;4985347;28;20445;-51
2022/03/21 11:47:50;;;;;;;13.48;8.27;;;;;;;;;;4981728;28;20050;-51
2022/03/21 11:50:25;;;;;;;11.30;6.93;;;;;;;;;;4986073;28;20434;-51
2022/03/21 11:53:07;;;;;;;12.52;7.10;;;;;;;;;;4986266;28;20106;-51
2022/03/21 11:55:36;;;;;;;12.63;7.53;;;;;;;;;;4985321;28;20065;-51
2022/03/21 11:58:20;;;;;;;11.25;7.38;;;;;;;;;;4971990;28;20109;-50
2022/03/21 12:01:01;;;;;;;12.35;7.38;;;;;;;;;;4967132;28;20024;-50
2022/03/21 12:03:27;;;;;;;12.18;7.25;;;;;;;;;;4965709;28;20035;-50
2022/03/21 12:05:52;;;;;;;12.95;7.68;;;;;;;;;;4965471;28;20023;-50
2022/03/21 12:08:32;;;;;;;13.20;7.10;;;;;;;;;;4965351;28;20057;-50
2022/03/21 12:10:57;;;;;;;12.85;7.53;;;;;;;;;;4970112;28;20026;-51
2022/03/21 12:13:23;;;;;;;12.70;7.28;;;;;;;;;;4982051;28;20037;-50
2022/03/21 12:15:51;;;;;;;13.43;7.40;;;;;;;;;;4968719;28;20403;-50
2022/03/21 12:18:16;;;;;;;11.63;6.95;;;;;;;;;;4969448;28;20042;-50
2022/03/21 12:20:46;;;;;;;11.85;7.43;;;;;;;;;;4969379;28;20011;-51
2022/03/21 12:23:15;;;;;;;13.13;7.75;;;;;;;;;;4968478;28;20023;-51
2022/03/21 12:25:41;;;;;;;11.07;7.07;;;;;;;;;;4966319;28;20164;-51
2022/03/21 12:28:16;;;;;;;12.60;6.75;;;;;;;;;;4966325;28;20014;-50
2022/03/21 12:30:41;;;;;;;11.23;7.07;;;;;;;;;;4976735;28;20101;-51
2022/03/21 12:33:09;;;;;;;10.83;6.90;;;;;;;;;;4966091;28;20169;-54
2022/03/21 12:35:35;;;;;;;12.48;7.15;;;;;;;;;;4971521;28;20258;-51
2022/03/21 12:38:00;;;;;;;11.50;7.13;;;;;;;;;;4978057;28;20022;-50
2022/03/21 12:40:25;;;;;;;12.87;7.10;;;;;;;;;;4971979;28;20023;-52
2022/03/21 12:42:50;;;;;;;12.83;7.03;;;;;;;;;;4971187;28;20029;-52
2022/03/21 12:45:19;;;;;;;11.10;6.22;;;;;;;;;;4972703;28;20106;-51
2022/03/21 12:47:44;;;;;;;11.45;6.60;;;;;;;;;;4971210;28;20427;-51
2022/03/21 12:50:10;;;;;;;11.40;6.30;;;;;;;;;;4981658;28;20022;-51
2022/03/21 12:52:35;;;;;;;11.23;6.63;;;;;;;;;;4983937;28;21336;-51
2022/03/21 12:55:00;;;;;;;11.18;6.85;;;;;;;;;;4986540;28;20356;-52
2022/03/21 12:57:26;;;;;;;11.52;7.30;;;;;;;;;;4984881;28;20155;-51
2022/03/21 12:59:52;;;;;;;9.65;5.85;;;;;;;;;;4984205;28;20109;-52
2022/03/21 13:02:26;;;;;;;10.43;6.83;;;;;;;;;;4982752;28;20509;-52
2022/03/21 13:10:32;;;;;;;11.38;6.38;;;;;;;;;;4967471;28;20053;-51
2022/03/21 13:12:58;;;;;;;9.90;6.35;;;;;;;;;;4967322;28;20476;-50
2022/03/21 13:15:23;;;;;;;11.10;6.75;;;;;;;;;;4966479;28;20133;-50
2022/03/21 13:17:49;;;;;;;9.50;5.80;;;;;;;;;;4968432;28;20040;-51
2022/03/21 13:20:25;;;;;;;10.48;5.93;;;;;;;;;;4966037;28;20038;-50
2022/03/21 13:22:50;;;;;;;10.68;5.93;;;;;;;;;;4966711;28;20026;-51
2022/03/21 13:25:22;;;;;;;11.45;6.43;;;;;;;;;;4964853;28;20525;-51
2022/03/21 13:27:47;;;;;;;11.02;6.15;;;;;;;;;;4963890;28;20077;-51
2022/03/21 13:30:12;;;;;;;9.88;6.10;;;;;;;;;;4965950;28;20027;-50
2022/03/21 13:32:43;;;;;;;10.95;6.45;;;;;;;;;;4966633;28;20802;-50
2022/03/21 13:35:11;;;;;;;14.38;6.47;;;;;;;;;;4966705;28;20105;-51
2022/03/21 13:37:36;;;;;;;9.32;6.10;;;;;;;;;;4968456;28;20035;-50
2022/03/21 13:40:05;;;;;;;11.43;6.43;;;;;;;;;;4965806;28;20029;-51
2022/03/21 13:42:39;;;;;;;10.88;6.57;;;;;;;;;;4965629;28;20023;-50
2022/03/21 13:45:06;;;;;;;12.63;6.30;;;;;;;;;;4966495;28;20180;-51
2022/03/21 13:47:47;;;;;;;9.45;5.88;;;;;;;;;;4967015;28;20041;-50
2022/03/21 13:50:12;;;;;;;10.98;6.68;;;;;;;;;;4965115;28;20424;-50
2022/03/21 13:52:38;;;;;;;11.07;6.10;;;;;;;;;;4965947;28;20034;-50
2022/03/21 13:55:03;;;;;;;10.57;6.13;;;;;;;;;;4967905;28;20592;-51
2022/03/21 13:57:28;;;;;;;10.00;5.93;;;;;;;;;;4965304;28;20034;-51
2022/03/21 13:59:59;;;;;;;10.57;6.33;;;;;;;;;;4966218;28;20467;-50
2022/03/21 14:02:25;;;;;;;9.50;5.97;;;;;;;;;;4967221;28;20039;-50
2022/03/21 14:04:53;;;;;;;9.77;5.75;;;;;;;;;;4966673;28;20041;-50
2022/03/21 14:07:18;;;;;;;9.88;6.15;;;;;;;;;;4963796;28;20732;-50
2022/03/21 14:09:50;;;;;;;10.45;7.10;;;;;;;;;;4965333;28;20037;-50
2022/03/21 14:12:15;;;;;;;10.18;6.50;;;;;;;;;;4965034;28;20045;-51
2022/03/21 14:14:40;;;;;;;10.53;6.40;;;;;;;;;;4968536;28;20035;-50
2022/03/21 14:17:06;;;;;;;8.30;5.90;;;;;;;;;;4965177;28;20308;-50
2022/03/21 14:19:32;;;;;;;9.32;5.47;;;;;;;;;;4979755;28;20121;-50
2022/03/21 14:21:57;;;;;;;10.40;6.75;;;;;;;;;;4982369;28;20049;-49
2022/03/21 14:24:22;;;;;;;10.48;6.18;;;;;;;;;;4982901;28;20026;-50
2022/03/21 14:26:48;;;;;;;11.20;6.30;;;;;;;;;;4981546;28;20251;-52
2022/03/21 14:29:16;;;;;;;11.73;6.30;;;;;;;;;;4985987;28;20735;-50
2022/03/21 14:31:41;;;;;;;9.02;5.78;;;;;;;;;;4988951;28;20045;-50
2022/03/21 14:34:06;;;;;;;9.05;5.55;;;;;;;;;;4983602;28;20022;-50
2022/03/21 14:36:31;;;;;;;9.93;5.70;;;;;;;;;;4983736;28;20080;-50
2022/03/21 14:38:57;;;;;;;8.55;5.47;;;;;;;;;;4987573;28;20257;-50
2022/03/21 14:41:22;;;;;;;10.47;6.00;;;;;;;;;;4989103;28;20030;-50
2022/03/21 14:43:47;;;;;;;9.82;5.80;;;;;;;;;;4990067;28;20022;-51
2022/03/21 14:46:13;;;;;;;8.35;5.45;;;;;;;;;;4989974;28;20827;-52
2022/03/21 14:48:38;;;;;;;9.93;5.90;;;;;;;;;;4989547;28;20026;-51
2022/03/21 14:51:05;;;;;;;8.57;5.25;;;;;;;;;;4989843;28;20034;-51
2022/03/21 14:53:30;;;;;;;9.20;5.82;;;;;;;;;;4989668;28;20034;-51
2022/03/21 14:56:00;;;;;;;9.93;5.85;;;;;;;;;;4988568;28;20077;-51